sensor_id;sensor_type;location;lat;lon;timestamp;pressure;altitude;pressure_sealevel;temperature;humidity
9189;BME280;34313;50.780;6.084;2023-04-24T00:00:15;98105.28;;;10.02;94.11
9189;BME280;34313;50.780;6.084;2023-04-24T00:02:42;98093.69;;;10.05;93.93
9189;BME280;34313;50.780;6.084;2023-04-24T00:05:12;98100.63;;;10.06;90.89
9189;BME280;34313;50.780;6.084;2023-04-24T00:07:37;98109.97;;;9.98;85.99
9189;BME280;34313;50.780;6.084;2023-04-24T00:10:03;98106.38;;;9.99;84.18
9189;BME280;34313;50.780;6.084;2023-04-24T00:12:28;98103.16;;;9.96;82.87
9189;BME280;34313;50.780;6.084;2023-04-24T00:14:54;98106.38;;;9.88;82.49
9189;BME280;34313;50.780;6.084;2023-04-24T00:17:20;98116.28;;;9.73;82.78
9189;BME280;34313;50.780;6.084;2023-04-24T00:19:48;98109.09;;;9.64;83.00
9189;BME280;34313;50.780;6.084;2023-04-24T00:22:16;98118.50;;;9.44;84.61
9189;BME280;34313;50.780;6.084;2023-04-24T00:24:42;98130.19;;;9.28;85.58
9189;BME280;34313;50.780;6.084;2023-04-24T00:27:07;98125.22;;;9.13;86.69
9189;BME280;34313;50.780;6.084;2023-04-24T00:29:32;98125.41;;;8.98;87.53
9189;BME280;34313;50.780;6.084;2023-04-24T00:31:59;98136.22;;;8.82;88.29
9189;BME280;34313;50.780;6.084;2023-04-24T00:34:24;98133.78;;;8.68;89.33
9189;BME280;34313;50.780;6.084;2023-04-24T00:36:50;98138.16;;;8.67;89.93
9189;BME280;34313;50.780;6.084;2023-04-24T00:39:21;98135.38;;;8.58;90.12
9189;BME280;34313;50.780;6.084;2023-04-24T00:41:46;98140.28;;;8.62;89.95
9189;BME280;34313;50.780;6.084;2023-04-24T00:44:13;98149.13;;;8.61;90.08
9189;BME280;34313;50.780;6.084;2023-04-24T00:46:39;98146.75;;;8.69;89.85
9189;BME280;34313;50.780;6.084;2023-04-24T00:49:05;98143.81;;;8.74;89.68
9189;BME280;34313;50.780;6.084;2023-04-24T00:51:31;98134.50;;;8.70;89.04
9189;BME280;34313;50.780;6.084;2023-04-24T00:53:58;98140.25;;;8.75;88.87
9189;BME280;34313;50.780;6.084;2023-04-24T00:56:23;98135.81;;;8.76;88.70
9189;BME280;34313;50.780;6.084;2023-04-24T00:58:49;98135.72;;;8.77;88.88
9189;BME280;34313;50.780;6.084;2023-04-24T01:01:14;98146.34;;;8.76;88.93
9189;BME280;34313;50.780;6.084;2023-04-24T01:03:40;98139.78;;;8.81;88.54
9189;BME280;34313;50.780;6.084;2023-04-24T01:06:06;98131.47;;;8.87;88.65
9189;BME280;34313;50.780;6.084;2023-04-24T01:08:32;98127.66;;;8.92;87.91
9189;BME280;34313;50.780;6.084;2023-04-24T01:11:00;98130.91;;;8.95;87.92
9189;BME280;34313;50.780;6.084;2023-04-24T01:13:28;98132.09;;;8.91;88.09
9189;BME280;34313;50.780;6.084;2023-04-24T01:15:54;98131.72;;;8.96;88.19
9189;BME280;34313;50.780;6.084;2023-04-24T01:18:19;98129.97;;;8.96;87.34
9189;BME280;34313;50.780;6.084;2023-04-24T01:20:46;98127.34;;;8.96;88.03
9189;BME280;34313;50.780;6.084;2023-04-24T01:23:12;98123.50;;;9.00;87.76
9189;BME280;34313;50.780;6.084;2023-04-24T01:25:37;98139.06;;;9.03;87.65
9189;BME280;34313;50.780;6.084;2023-04-24T01:28:03;98130.47;;;9.01;87.61
9189;BME280;34313;50.780;6.084;2023-04-24T01:30:29;98133.59;;;9.06;87.14
9189;BME280;34313;50.780;6.084;2023-04-24T01:32:55;98133.34;;;9.09;86.63
9189;BME280;34313;50.780;6.084;2023-04-24T01:35:20;98134.53;;;9.05;86.70
9189;BME280;34313;50.780;6.084;2023-04-24T01:37:46;98126.66;;;9.05;88.70
9189;BME280;34313;50.780;6.084;2023-04-24T01:40:11;98136.47;;;9.15;86.45
9189;BME280;34313;50.780;6.084;2023-04-24T01:42:37;98133.34;;;9.09;85.86
9189;BME280;34313;50.780;6.084;2023-04-24T01:45:03;98146.38;;;9.11;85.84
9189;BME280;34313;50.780;6.084;2023-04-24T01:47:30;98131.19;;;9.03;85.72
9189;BME280;34313;50.780;6.084;2023-04-24T01:49:56;98140.41;;;9.09;85.64
9189;BME280;34313;50.780;6.084;2023-04-24T01:52:22;98140.28;;;9.11;85.45
9189;BME280;34313;50.780;6.084;2023-04-24T01:54:47;98143.25;;;9.06;85.65
9189;BME280;34313;50.780;6.084;2023-04-24T01:57:13;98136.31;;;9.05;85.92
9189;BME280;34313;50.780;6.084;2023-04-24T01:59:39;98134.63;;;9.04;85.35
9189;BME280;34313;50.780;6.084;2023-04-24T02:02:05;98145.97;;;9.04;85.86
9189;BME280;34313;50.780;6.084;2023-04-24T02:04:31;98136.66;;;9.00;86.12
9189;BME280;34313;50.780;6.084;2023-04-24T02:06:56;98124.94;;;9.04;85.48
9189;BME280;34313;50.780;6.084;2023-04-24T02:09:21;98142.53;;;9.04;85.62
9189;BME280;34313;50.780;6.084;2023-04-24T02:11:47;98130.47;;;9.01;85.78
9189;BME280;34313;50.780;6.084;2023-04-24T02:14:12;98136.44;;;9.03;85.67
9189;BME280;34313;50.780;6.084;2023-04-24T02:16:38;98144.53;;;9.00;85.66
9189;BME280;34313;50.780;6.084;2023-04-24T02:19:04;98138.78;;;8.95;86.19
9189;BME280;34313;50.780;6.084;2023-04-24T02:21:29;98144.75;;;8.97;86.29
9189;BME280;34313;50.780;6.084;2023-04-24T02:23:56;98133.91;;;9.02;86.22
9189;BME280;34313;50.780;6.084;2023-04-24T02:26:21;98136.75;;;8.99;86.55
9189;BME280;34313;50.780;6.084;2023-04-24T02:28:47;98136.66;;;9.00;86.51
9189;BME280;34313;50.780;6.084;2023-04-24T02:31:12;98131.72;;;8.96;86.70
9189;BME280;34313;50.780;6.084;2023-04-24T02:33:37;98135.09;;;8.98;86.84
9189;BME280;34313;50.780;6.084;2023-04-24T02:36:03;98133.31;;;8.98;86.93
9189;BME280;34313;50.780;6.084;2023-04-24T02:38:29;98133.75;;;8.92;87.11
9189;BME280;34313;50.780;6.084;2023-04-24T02:40:54;98137.94;;;8.95;86.73
9189;BME280;34313;50.780;6.084;2023-04-24T02:43:20;98130.41;;;8.90;87.33
9189;BME280;34313;50.780;6.084;2023-04-24T02:45:45;98133.03;;;8.90;87.36
9189;BME280;34313;50.780;6.084;2023-04-24T02:48:11;98137.66;;;8.86;87.86
9189;BME280;34313;50.780;6.084;2023-04-24T02:50:36;98139.97;;;8.91;87.55
9189;BME280;34313;50.780;6.084;2023-04-24T02:53:01;98137.66;;;8.86;87.95
9189;BME280;34313;50.780;6.084;2023-04-24T02:55:26;98142.81;;;8.88;87.77
9189;BME280;34313;50.780;6.084;2023-04-24T02:57:52;98131.25;;;8.91;87.70
9189;BME280;34313;50.780;6.084;2023-04-24T03:00:17;98136.34;;;8.81;88.52
9189;BME280;34313;50.780;6.084;2023-04-24T03:02:43;98142.91;;;8.86;88.23
9189;BME280;34313;50.780;6.084;2023-04-24T03:05:08;98142.09;;;8.86;88.40
9189;BME280;34313;50.780;6.084;2023-04-24T03:07:34;98145.66;;;8.85;88.28
9189;BME280;34313;50.780;6.084;2023-04-24T03:09:59;98138.84;;;8.82;88.62
9189;BME280;34313;50.780;6.084;2023-04-24T03:12:25;98142.00;;;8.75;88.96
9189;BME280;34313;50.780;6.084;2023-04-24T03:14:50;98135.59;;;8.79;89.16
9189;BME280;34313;50.780;6.084;2023-04-24T03:17:16;98142.88;;;8.75;89.63
9189;BME280;34313;50.780;6.084;2023-04-24T03:19:41;98147.28;;;8.75;89.95
9189;BME280;34313;50.780;6.084;2023-04-24T03:22:06;98136.91;;;8.73;90.17
9189;BME280;34313;50.780;6.084;2023-04-24T03:24:34;98141.75;;;8.66;90.45
9189;BME280;34313;50.780;6.084;2023-04-24T03:26:59;98148.03;;;8.64;91.27
9189;BME280;34313;50.780;6.084;2023-04-24T03:29:25;98145.03;;;8.57;91.68
9189;BME280;34313;50.780;6.084;2023-04-24T03:31:50;98149.84;;;8.63;91.56
9189;BME280;34313;50.780;6.084;2023-04-24T03:34:15;98137.91;;;8.59;91.96
9189;BME280;34313;50.780;6.084;2023-04-24T03:36:41;98144.28;;;8.55;92.13
9189;BME280;34313;50.780;6.084;2023-04-24T03:39:06;98155.41;;;8.59;92.13
9189;BME280;34313;50.780;6.084;2023-04-24T03:41:32;98152.53;;;8.50;92.88
9189;BME280;34313;50.780;6.084;2023-04-24T03:43:57;98151.44;;;8.53;92.86
9189;BME280;34313;50.780;6.084;2023-04-24T03:46:22;98153.47;;;8.49;93.21
9189;BME280;34313;50.780;6.084;2023-04-24T03:48:47;98146.66;;;8.47;93.93
9189;BME280;34313;50.780;6.084;2023-04-24T03:51:13;98149.28;;;8.47;93.98
9189;BME280;34313;50.780;6.084;2023-04-24T03:53:38;98146.97;;;8.42;94.22
9189;BME280;34313;50.780;6.084;2023-04-24T03:56:03;98142.44;;;8.31;94.77
9189;BME280;34313;50.780;6.084;2023-04-24T03:58:29;98139.41;;;8.25;95.10
9189;BME280;34313;50.780;6.084;2023-04-24T04:00:54;98152.47;;;8.13;96.20
9189;BME280;34313;50.780;6.084;2023-04-24T04:03:21;98146.88;;;8.18;96.47
9189;BME280;34313;50.780;6.084;2023-04-24T04:05:47;98139.34;;;8.13;96.89
9189;BME280;34313;50.780;6.084;2023-04-24T04:08:12;98145.41;;;8.14;98.36
9189;BME280;34313;50.780;6.084;2023-04-24T04:10:38;98141.09;;;8.13;99.48
9189;BME280;34313;50.780;6.084;2023-04-24T04:13:03;98145.22;;;8.04;100.00
9189;BME280;34313;50.780;6.084;2023-04-24T04:15:28;98154.88;;;8.04;100.00
9189;BME280;34313;50.780;6.084;2023-04-24T04:17:54;98165.16;;;8.07;100.00
9189;BME280;34313;50.780;6.084;2023-04-24T04:20:19;98168.41;;;8.10;100.00
9189;BME280;34313;50.780;6.084;2023-04-24T04:22:44;98159.47;;;8.13;100.00
9189;BME280;34313;50.780;6.084;2023-04-24T04:25:10;98160.34;;;8.13;100.00
9189;BME280;34313;50.780;6.084;2023-04-24T04:27:36;98167.97;;;8.17;100.00
9189;BME280;34313;50.780;6.084;2023-04-24T04:30:02;98159.28;;;8.16;100.00
9189;BME280;34313;50.780;6.084;2023-04-24T04:32:31;98162.09;;;8.13;100.00
9189;BME280;34313;50.780;6.084;2023-04-24T04:34:59;98168.94;;;8.16;100.00
9189;BME280;34313;50.780;6.084;2023-04-24T04:37:31;98166.41;;;8.14;100.00
9189;BME280;34313;50.780;6.084;2023-04-24T04:39:57;98172.28;;;8.18;100.00
9189;BME280;34313;50.780;6.084;2023-04-24T04:42:23;98168.94;;;8.16;100.00
9189;BME280;34313;50.780;6.084;2023-04-24T04:44:49;98181.97;;;8.17;100.00
9189;BME280;34313;50.780;6.084;2023-04-24T04:47:15;98181.72;;;8.20;100.00
9189;BME280;34313;50.780;6.084;2023-04-24T04:49:41;98176.72;;;8.17;100.00
9189;BME280;34313;50.780;6.084;2023-04-24T04:52:06;98179.53;;;8.14;100.00
9189;BME280;34313;50.780;6.084;2023-04-24T04:54:32;98188.75;;;8.20;100.00
9189;BME280;34313;50.780;6.084;2023-04-24T04:56:57;98180.47;;;8.26;100.00
9189;BME280;34313;50.780;6.084;2023-04-24T04:59:23;98182.59;;;8.21;100.00
9189;BME280;34313;50.780;6.084;2023-04-24T05:01:48;98180.78;;;8.21;100.00
9189;BME280;34313;50.780;6.084;2023-04-24T05:04:13;98190.97;;;8.26;100.00
9189;BME280;34313;50.780;6.084;2023-04-24T05:06:39;98197.56;;;8.31;100.00
9189;BME280;34313;50.780;6.084;2023-04-24T05:09:04;98193.16;;;8.32;100.00
9189;BME280;34313;50.780;6.084;2023-04-24T05:11:30;98199.13;;;8.34;100.00
9189;BME280;34313;50.780;6.084;2023-04-24T05:13:55;98200.00;;;8.35;100.00
9189;BME280;34313;50.780;6.084;2023-04-24T05:16:20;98193.47;;;8.40;100.00
9189;BME280;34313;50.780;6.084;2023-04-24T05:18:46;98197.88;;;8.40;100.00
9189;BME280;34313;50.780;6.084;2023-04-24T05:21:11;98204.72;;;8.42;100.00
9189;BME280;34313;50.780;6.084;2023-04-24T05:23:37;98209.44;;;8.50;100.00
9189;BME280;34313;50.780;6.084;2023-04-24T05:26:02;98204.81;;;8.54;100.00
9189;BME280;34313;50.780;6.084;2023-04-24T05:28:27;98211.94;;;8.64;100.00
9189;BME280;34313;50.780;6.084;2023-04-24T05:30:54;98215.09;;;8.57;100.00
9189;BME280;34313;50.780;6.084;2023-04-24T05:33:20;98218.78;;;8.54;100.00
9189;BME280;34313;50.780;6.084;2023-04-24T05:35:45;98222.25;;;8.42;100.00
9189;BME280;34313;50.780;6.084;2023-04-24T05:38:12;98231.72;;;8.31;100.00
9189;BME280;34313;50.780;6.084;2023-04-24T05:40:38;98233.38;;;8.20;100.00
9189;BME280;34313;50.780;6.084;2023-04-24T05:43:03;98236.75;;;8.22;100.00
9189;BME280;34313;50.780;6.084;2023-04-24T05:45:29;98234.84;;;8.11;100.00
9189;BME280;34313;50.780;6.084;2023-04-24T05:47:54;98251.56;;;8.10;100.00
9189;BME280;34313;50.780;6.084;2023-04-24T05:50:20;98258.38;;;8.00;100.00
9189;BME280;34313;50.780;6.084;2023-04-24T05:52:45;98254.78;;;8.01;100.00
9189;BME280;34313;50.780;6.084;2023-04-24T05:55:11;98255.75;;;8.00;100.00
9189;BME280;34313;50.780;6.084;2023-04-24T05:57:36;98260.47;;;7.94;100.00
9189;BME280;34313;50.780;6.084;2023-04-24T06:00:02;98257.22;;;7.91;100.00
9189;BME280;34313;50.780;6.084;2023-04-24T06:02:29;98256.69;;;7.99;100.00
9189;BME280;34313;50.780;6.084;2023-04-24T06:04:57;98250.81;;;7.95;100.00
9189;BME280;34313;50.780;6.084;2023-04-24T06:07:24;98268.88;;;8.00;100.00
9189;BME280;34313;50.780;6.084;2023-04-24T06:09:51;98264.25;;;8.03;100.00
9189;BME280;34313;50.780;6.084;2023-04-24T06:12:17;98272.03;;;8.05;100.00
9189;BME280;34313;50.780;6.084;2023-04-24T06:14:42;98271.78;;;8.08;100.00
9189;BME280;34313;50.780;6.084;2023-04-24T06:17:08;98280.63;;;8.07;100.00
9189;BME280;34313;50.780;6.084;2023-04-24T06:19:33;98277.91;;;8.08;100.00
9189;BME280;34313;50.780;6.084;2023-04-24T06:21:58;98284.53;;;8.14;100.00
9189;BME280;34313;50.780;6.084;2023-04-24T06:24:27;98278.75;;;8.09;100.00
9189;BME280;34313;50.780;6.084;2023-04-24T06:26:52;98277.69;;;8.11;100.00
9189;BME280;34313;50.780;6.084;2023-04-24T06:29:17;98292.59;;;8.11;100.00
9189;BME280;34313;50.780;6.084;2023-04-24T06:31:43;98294.59;;;8.20;100.00
9189;BME280;34313;50.780;6.084;2023-04-24T06:34:08;98288.28;;;8.36;100.00
9189;BME280;34313;50.780;6.084;2023-04-24T06:36:33;98294.06;;;8.41;100.00
9189;BME280;34313;50.780;6.084;2023-04-24T06:39:00;98280.66;;;8.45;100.00
9189;BME280;34313;50.780;6.084;2023-04-24T06:41:25;98300.09;;;8.43;100.00
9189;BME280;34313;50.780;6.084;2023-04-24T06:43:50;98304.56;;;8.41;100.00
9189;BME280;34313;50.780;6.084;2023-04-24T06:46:16;98305.31;;;8.30;100.00
9189;BME280;34313;50.780;6.084;2023-04-24T06:48:41;98309.84;;;8.28;100.00
9189;BME280;34313;50.780;6.084;2023-04-24T06:51:06;98315.28;;;8.25;100.00
9189;BME280;34313;50.780;6.084;2023-04-24T06:53:32;98323.88;;;8.27;100.00
9189;BME280;34313;50.780;6.084;2023-04-24T06:55:57;98332.94;;;8.23;100.00
9189;BME280;34313;50.780;6.084;2023-04-24T06:58:24;98332.94;;;8.23;100.00
9189;BME280;34313;50.780;6.084;2023-04-24T07:00:50;98345.53;;;8.30;100.00
9189;BME280;34313;50.780;6.084;2023-04-24T07:03:15;98350.97;;;8.27;100.00
9189;BME280;34313;50.780;6.084;2023-04-24T07:05:41;98350.25;;;8.25;100.00
9189;BME280;34313;50.780;6.084;2023-04-24T07:08:06;98346.06;;;8.36;100.00
9189;BME280;34313;50.780;6.084;2023-04-24T07:10:32;98353.09;;;8.35;100.00
9189;BME280;34313;50.780;6.084;2023-04-24T07:12:59;98358.97;;;8.39;100.00
9189;BME280;34313;50.780;6.084;2023-04-24T07:15:24;98362.97;;;8.31;100.00
9189;BME280;34313;50.780;6.084;2023-04-24T07:17:50;98366.63;;;8.29;100.00
9189;BME280;34313;50.780;6.084;2023-04-24T07:20:15;98357.09;;;8.41;100.00
9189;BME280;34313;50.780;6.084;2023-04-24T07:22:40;98371.91;;;8.42;100.00
9189;BME280;34313;50.780;6.084;2023-04-24T07:25:06;98366.75;;;8.40;100.00
9189;BME280;34313;50.780;6.084;2023-04-24T07:27:32;98370.50;;;8.36;100.00
9189;BME280;34313;50.780;6.084;2023-04-24T07:29:57;98378.81;;;8.30;100.00
9189;BME280;34313;50.780;6.084;2023-04-24T07:32:22;98391.78;;;8.19;100.00
9189;BME280;34313;50.780;6.084;2023-04-24T07:34:47;98411.97;;;8.18;100.00
9189;BME280;34313;50.780;6.084;2023-04-24T07:37:13;98400.19;;;8.11;100.00
9189;BME280;34313;50.780;6.084;2023-04-24T07:39:38;98425.50;;;8.12;100.00
9189;BME280;34313;50.780;6.084;2023-04-24T07:42:03;98420.56;;;8.20;100.00
9189;BME280;34313;50.780;6.084;2023-04-24T07:44:29;98434.56;;;8.21;100.00
9189;BME280;34313;50.780;6.084;2023-04-24T07:46:55;98438.25;;;8.31;100.00
9189;BME280;34313;50.780;6.084;2023-04-24T07:49:20;98442.06;;;8.40;100.00
9189;BME280;34313;50.780;6.084;2023-04-24T07:51:46;98440.84;;;8.45;100.00
9189;BME280;34313;50.780;6.084;2023-04-24T07:54:11;98450.38;;;8.46;100.00
9189;BME280;34313;50.780;6.084;2023-04-24T07:56:37;98464.72;;;8.41;100.00
9189;BME280;34313;50.780;6.084;2023-04-24T07:59:04;98453.78;;;8.34;100.00
9189;BME280;34313;50.780;6.084;2023-04-24T08:01:29;98454.00;;;8.31;100.00
9189;BME280;34313;50.780;6.084;2023-04-24T08:03:55;98462.88;;;8.43;100.00
9189;BME280;34313;50.780;6.084;2023-04-24T08:06:21;98458.84;;;8.64;100.00
9189;BME280;34313;50.780;6.084;2023-04-24T08:08:46;98459.25;;;8.71;100.00
9189;BME280;34313;50.780;6.084;2023-04-24T08:11:11;98467.38;;;8.81;100.00
9189;BME280;34313;50.780;6.084;2023-04-24T08:13:37;98478.22;;;8.89;100.00
9189;BME280;34313;50.780;6.084;2023-04-24T08:16:02;98478.84;;;8.93;100.00
9189;BME280;34313;50.780;6.084;2023-04-24T08:18:27;98467.78;;;8.87;100.00
9189;BME280;34313;50.780;6.084;2023-04-24T08:20:53;98474.72;;;8.76;100.00
9189;BME280;34313;50.780;6.084;2023-04-24T08:23:18;98474.72;;;8.76;100.00
9189;BME280;34313;50.780;6.084;2023-04-24T08:25:43;98493.34;;;8.85;100.00
9189;BME280;34313;50.780;6.084;2023-04-24T08:28:09;98481.56;;;8.91;100.00
9189;BME280;34313;50.780;6.084;2023-04-24T08:30:36;98501.75;;;8.91;100.00
9189;BME280;34313;50.780;6.084;2023-04-24T08:33:01;98502.50;;;9.05;100.00
9189;BME280;34313;50.780;6.084;2023-04-24T08:35:26;98503.03;;;9.11;100.00
9189;BME280;34313;50.780;6.084;2023-04-24T08:37:52;98523.75;;;9.15;100.00
9189;BME280;34313;50.780;6.084;2023-04-24T08:40:22;98525.63;;;9.26;100.00
9189;BME280;34313;50.780;6.084;2023-04-24T08:42:54;98525.75;;;9.24;100.00
9189;BME280;34313;50.780;6.084;2023-04-24T08:45:21;98527.09;;;9.17;100.00
9189;BME280;34313;50.780;6.084;2023-04-24T08:47:47;98532.56;;;9.27;100.00
9189;BME280;34313;50.780;6.084;2023-04-24T08:50:14;98536.88;;;9.15;100.00
9189;BME280;34313;50.780;6.084;2023-04-24T08:52:41;98532.66;;;9.25;100.00
9189;BME280;34313;50.780;6.084;2023-04-24T08:55:07;98540.66;;;9.37;100.00
9189;BME280;34313;50.780;6.084;2023-04-24T08:57:32;98537.31;;;9.35;100.00
9189;BME280;34313;50.780;6.084;2023-04-24T08:59:59;98538.03;;;9.37;100.00
9189;BME280;34313;50.780;6.084;2023-04-24T09:02:25;98541.94;;;9.31;100.00
9189;BME280;34313;50.780;6.084;2023-04-24T09:04:52;98547.69;;;9.23;100.00
9189;BME280;34313;50.780;6.084;2023-04-24T09:07:18;98553.25;;;9.06;100.00
9189;BME280;34313;50.780;6.084;2023-04-24T09:09:44;98563.88;;;9.04;100.00
9189;BME280;34313;50.780;6.084;2023-04-24T09:12:11;98568.09;;;8.94;100.00
9189;BME280;34313;50.780;6.084;2023-04-24T09:14:37;98559.16;;;9.09;100.00
9189;BME280;34313;50.780;6.084;2023-04-24T09:17:07;98578.63;;;9.20;100.00
9189;BME280;34313;50.780;6.084;2023-04-24T09:19:33;98581.06;;;9.36;100.00
9189;BME280;34313;50.780;6.084;2023-04-24T09:21:58;98572.75;;;9.42;100.00
9189;BME280;34313;50.780;6.084;2023-04-24T09:24:23;98572.13;;;9.77;100.00
9189;BME280;34313;50.780;6.084;2023-04-24T09:26:56;98589.56;;;9.91;100.00
9189;BME280;34313;50.780;6.084;2023-04-24T09:29:27;98600.72;;;9.94;100.00
9189;BME280;34313;50.780;6.084;2023-04-24T09:31:52;98592.09;;;9.79;100.00
9189;BME280;34313;50.780;6.084;2023-04-24T09:34:22;98600.81;;;10.06;99.87
9189;BME280;34313;50.780;6.084;2023-04-24T09:36:48;98602.19;;;10.48;98.27
9189;BME280;34313;50.780;6.084;2023-04-24T09:39:15;98605.56;;;10.50;96.51
9189;BME280;34313;50.780;6.084;2023-04-24T09:41:54;98612.00;;;10.46;96.68
9189;BME280;34313;50.780;6.084;2023-04-24T09:44:22;98617.97;;;10.61;96.29
9189;BME280;34313;50.780;6.084;2023-04-24T09:46:51;98621.78;;;10.81;95.35
9189;BME280;34313;50.780;6.084;2023-04-24T09:49:25;98623.38;;;11.19;92.46
9189;BME280;34313;50.780;6.084;2023-04-24T09:51:50;98633.72;;;11.33;90.57
9189;BME280;34313;50.780;6.084;2023-04-24T09:54:18;98635.72;;;11.88;87.81
9189;BME280;34313;50.780;6.084;2023-04-24T09:56:47;98616.09;;;12.26;82.71
9189;BME280;34313;50.780;6.084;2023-04-24T09:59:14;98630.22;;;12.59;81.82
9189;BME280;34313;50.780;6.084;2023-04-24T10:01:40;98625.69;;;13.14;78.41
9189;BME280;34313;50.780;6.084;2023-04-24T10:06:43;98625.94;;;14.77;69.15
9189;BME280;34313;50.780;6.084;2023-04-24T10:09:08;98605.91;;;15.70;65.99
9189;BME280;34313;50.780;6.084;2023-04-24T10:11:36;98615.72;;;16.07;63.55
9189;BME280;34313;50.780;6.084;2023-04-24T10:14:02;98631.84;;;16.33;61.49
9189;BME280;34313;50.780;6.084;2023-04-24T10:16:27;98622.53;;;16.75;60.09
9189;BME280;34313;50.780;6.084;2023-04-24T10:18:54;98637.91;;;16.25;60.35
9189;BME280;34313;50.780;6.084;2023-04-24T10:21:19;98657.16;;;16.10;59.92
9189;BME280;34313;50.780;6.084;2023-04-24T10:23:45;98646.34;;;16.49;59.13
9189;BME280;34313;50.780;6.084;2023-04-24T10:26:12;98630.97;;;16.88;58.71
9189;BME280;34313;50.780;6.084;2023-04-24T10:28:45;98641.00;;;16.49;58.44
9189;BME280;34313;50.780;6.084;2023-04-24T10:31:11;98643.13;;;16.45;58.45
9189;BME280;34313;50.780;6.084;2023-04-24T10:33:38;98652.59;;;15.63;58.79
9189;BME280;34313;50.780;6.084;2023-04-24T10:36:04;98650.41;;;14.40;61.94
9189;BME280;34313;50.780;6.084;2023-04-24T10:38:30;98655.13;;;14.36;63.96
9189;BME280;34313;50.780;6.084;2023-04-24T10:41:11;98653.38;;;14.25;64.78
9189;BME280;34313;50.780;6.084;2023-04-24T10:43:45;98657.63;;;14.68;63.95
9189;BME280;34313;50.780;6.084;2023-04-24T10:46:16;98660.81;;;14.62;63.17
9189;BME280;34313;50.780;6.084;2023-04-24T10:48:52;98659.88;;;14.32;65.06
9189;BME280;34313;50.780;6.084;2023-04-24T10:51:22;98662.63;;;14.00;65.64
9189;BME280;34313;50.780;6.084;2023-04-24T10:53:49;98665.19;;;13.80;66.55
9189;BME280;34313;50.780;6.084;2023-04-24T10:56:15;98671.25;;;13.71;66.47
9189;BME280;34313;50.780;6.084;2023-04-24T10:58:43;98666.75;;;13.30;67.93
9189;BME280;34313;50.780;6.084;2023-04-24T11:01:23;98672.69;;;12.78;70.09
9189;BME280;34313;50.780;6.084;2023-04-24T11:03:55;98678.41;;;12.40;72.73
9189;BME280;34313;50.780;6.084;2023-04-24T11:06:34;98685.19;;;11.86;76.05
9189;BME280;34313;50.780;6.084;2023-04-24T11:09:05;98691.56;;;11.83;77.54
9189;BME280;34313;50.780;6.084;2023-04-24T11:11:32;98698.69;;;12.28;76.49
9189;BME280;34313;50.780;6.084;2023-04-24T11:16:28;98700.31;;;13.61;72.79
9189;BME280;34313;50.780;6.084;2023-04-24T11:19:04;98705.00;;;14.21;69.58
9189;BME280;34313;50.780;6.084;2023-04-24T11:27:14;98708.09;;;15.27;63.61
9189;BME280;34313;50.780;6.084;2023-04-24T11:35:05;98712.31;;;15.39;62.32
9189;BME280;34313;50.780;6.084;2023-04-24T11:37:35;98712.31;;;15.49;61.32
9189;BME280;34313;50.780;6.084;2023-04-24T11:40:02;98720.69;;;15.54;60.10
9189;BME280;34313;50.780;6.084;2023-04-24T11:42:33;98713.69;;;15.63;59.91
9189;BME280;34313;50.780;6.084;2023-04-24T11:44:59;98727.97;;;16.01;57.32
9189;BME280;34313;50.780;6.084;2023-04-24T11:47:29;98727.66;;;16.04;55.44
9189;BME280;34313;50.780;6.084;2023-04-24T11:49:55;98736.56;;;16.22;55.10
9189;BME280;34313;50.780;6.084;2023-04-24T11:52:20;98719.81;;;16.12;55.59
9189;BME280;34313;50.780;6.084;2023-04-24T11:54:49;98736.06;;;15.41;56.02
9189;BME280;34313;50.780;6.084;2023-04-24T11:57:16;98731.72;;;15.30;55.33
9189;BME280;34313;50.780;6.084;2023-04-24T11:59:41;98730.84;;;14.90;55.36
9189;BME280;34313;50.780;6.084;2023-04-24T12:02:07;98733.84;;;15.36;54.72
9189;BME280;34313;50.780;6.084;2023-04-24T12:04:41;98743.31;;;15.39;54.47
9189;BME280;34313;50.780;6.084;2023-04-24T12:07:07;98737.75;;;15.91;53.87
9189;BME280;34313;50.780;6.084;2023-04-24T12:09:50;98732.13;;;16.03;52.70
9189;BME280;34313;50.780;6.084;2023-04-24T12:12:20;98739.88;;;15.87;53.37
9189;BME280;34313;50.780;6.084;2023-04-24T12:14:50;98752.44;;;15.56;53.92
9189;BME280;34313;50.780;6.084;2023-04-24T12:17:17;98756.72;;;14.67;55.33
9189;BME280;34313;50.780;6.084;2023-04-24T12:19:47;98760.63;;;13.90;57.66
9189;BME280;34313;50.780;6.084;2023-04-24T12:22:13;98751.28;;;13.54;59.77
9189;BME280;34313;50.780;6.084;2023-04-24T12:25:01;98751.59;;;13.60;59.32
9189;BME280;34313;50.780;6.084;2023-04-24T12:27:30;98757.63;;;13.84;59.09
9189;BME280;34313;50.780;6.084;2023-04-24T12:29:56;98759.66;;;14.43;56.96
9189;BME280;34313;50.780;6.084;2023-04-24T12:32:22;98757.69;;;15.07;54.99
9189;BME280;34313;50.780;6.084;2023-04-24T12:34:49;98748.66;;;15.68;53.74
9189;BME280;34313;50.780;6.084;2023-04-24T12:37:15;98757.16;;;16.20;53.21
9189;BME280;34313;50.780;6.084;2023-04-24T12:39:57;98753.69;;;16.48;51.36
9189;BME280;34313;50.780;6.084;2023-04-24T12:42:27;98758.03;;;16.49;50.77
9189;BME280;34313;50.780;6.084;2023-04-24T12:44:58;98760.63;;;16.31;51.41
9189;BME280;34313;50.780;6.084;2023-04-24T12:47:25;98757.75;;;15.95;51.39
9189;BME280;34313;50.780;6.084;2023-04-24T12:49:50;98766.94;;;15.22;53.29
9189;BME280;34313;50.780;6.084;2023-04-24T12:52:19;98780.16;;;14.62;54.81
9189;BME280;34313;50.780;6.084;2023-04-24T12:54:45;98783.22;;;14.15;56.24
9189;BME280;34313;50.780;6.084;2023-04-24T12:57:11;98770.34;;;13.90;56.14
9189;BME280;34313;50.780;6.084;2023-04-24T12:59:36;98776.22;;;13.93;55.78
9189;BME280;34313;50.780;6.084;2023-04-24T13:02:02;98772.94;;;14.01;56.02
9189;BME280;34313;50.780;6.084;2023-04-24T13:04:27;98792.91;;;13.84;57.00
9189;BME280;34313;50.780;6.084;2023-04-24T13:06:53;98781.81;;;14.11;56.31
9189;BME280;34313;50.780;6.084;2023-04-24T13:09:18;98785.03;;;14.36;54.72
9189;BME280;34313;50.780;6.084;2023-04-24T13:11:43;98795.09;;;14.42;55.05
9189;BME280;34313;50.780;6.084;2023-04-24T13:14:09;98791.38;;;14.54;54.13
9189;BME280;34313;50.780;6.084;2023-04-24T13:16:34;98804.03;;;14.62;53.65
9189;BME280;34313;50.780;6.084;2023-04-24T13:18:59;98799.06;;;14.79;53.05
9189;BME280;34313;50.780;6.084;2023-04-24T13:21:25;98796.75;;;14.95;53.74
9189;BME280;34313;50.780;6.084;2023-04-24T13:23:51;98787.16;;;15.23;51.45
9189;BME280;34313;50.780;6.084;2023-04-24T13:26:17;98793.63;;;15.21;51.72